Megan T Miller — WCW9003 — position and weather

sailwx.info

Track history (hours):
 
Tides and Currents Weather Stations Pressure Air Temp Water Temp Dewpoint Dewpoint Depression Visibility Wind Speed Wind Dir Waves Ship Positions

Megan T Miller

Owner: MILLER MARINE SERVICES INC, PORT JEFFERSON, NY. More information available from US FCC via Universal Licensing System and Coast Guard Vessel Documentation Center.

Last reported at 2015-Jan-31 04:33 UTC. Time now 2015-Feb-01 21:20 UTC.
Position N 40°25' W 074°02'.

Length 18 m.

MMSI: 338104509.

Date/timePositionNaut miles runAvg speedWind from/ knotsBaromVisibWave heightAir tempDewpointWater temp
2015-Jan-31 04:33N 40°25' W 074°02'0 0.0
2015-Jan-30 03:24N 40°25' W 074°02'0 0.0
2015-Jan-30 00:06N 40°25' W 074°02'0 0.0
2015-Jan-29 01:21N 40°25' W 074°02'0 0.0
2015-Jan-29 00:23N 40°25' W 074°02'0 0.0
2015-Jan-28 22:05N 40°25' W 074°02'0 0.0
2015-Jan-27 01:21N 40°25' W 074°02'0 0.0
2015-Jan-26 22:13N 40°25' W 074°02'0 0.0
2015-Jan-26 15:10N 40°25' W 074°02'0 0.0
2015-Jan-26 14:28N 40°25' W 074°02'0 0.0
2015-Jan-26 13:03N 40°25' W 074°02'0 0.0
2015-Jan-26 09:19N 40°25' W 074°02'0 0.0
2015-Jan-26 03:25N 40°25' W 074°02'0 0.0
2015-Jan-26 00:06N 40°25' W 074°02'0 0.0
2015-Jan-25 13:12N 40°25' W 074°02'0 0.0
2015-Jan-25 12:30N 40°25' W 074°02'0 0.0
2015-Jan-25 03:30N 40°25' W 074°02'0 0.0
2015-Jan-25 02:30N 40°25' W 074°02'0 0.0
2015-Jan-24 16:08N 40°25' W 074°02'0 0.0
2015-Jan-24 05:32N 40°25' W 074°02'0 0.0
2015-Jan-24 04:26N 40°25' W 074°02'0 0.0
2015-Jan-24 03:33N 40°25' W 074°02'0 0.0
2015-Jan-24 02:14N 40°25' W 074°02'5 0.4
2015-Jan-23 15:28N 40°29' W 073°60'0 0.0
2015-Jan-23 14:30N 40°29' W 073°60'0 0.0
2015-Jan-23 13:26N 40°29' W 073°60'0 0.0
2015-Jan-23 10:33N 40°29' W 073°60'0 0.0
2015-Jan-23 06:06N 40°29' W 073°60'0 0.0
2015-Jan-23 04:23N 40°29' W 073°60'0 0.0
2015-Jan-23 03:28N 40°29' W 073°60'0 0.0
2015-Jan-23 02:20N 40°29' W 073°60'0 0.0
2015-Jan-23 01:33N 40°29' W 073°60'0 0.0
2015-Jan-23 00:29N 40°29' W 073°60'0 0.0
2015-Jan-22 23:21N 40°29' W 073°60'0 0.0
2015-Jan-22 22:23N 40°29' W 073°60'0 0.0
2015-Jan-22 20:21N 40°29' W 073°60'0 0.0
2015-Jan-22 19:05N 40°29' W 073°60'0 0.0
2015-Jan-22 18:23N 40°29' W 073°60'0 0.0
2015-Jan-22 16:31N 40°29' W 073°60'0 0.0
2015-Jan-22 12:03N 40°29' W 073°60'2 0.3
2015-Jan-22 04:26N 40°28' W 074°01'0 0.0
2015-Jan-22 03:13N 40°28' W 074°01'0 0.0
2015-Jan-22 02:06N 40°28' W 074°01'0 0.0
2015-Jan-22 01:20N 40°28' W 074°01'0 0.0
2015-Jan-22 00:29N 40°28' W 074°01'0 0.0
2015-Jan-21 23:12N 40°28' W 074°01'2 4.9
2015-Jan-21 22:50N 40°29' W 074°00'0 4.4
2015-Jan-21 22:46N 40°29' W 073°60'0 0.2
2015-Jan-21 22:33N 40°29' W 073°60'0 0.0
2015-Jan-21 21:32N 40°29' W 073°60'0 0.0
2015-Jan-21 20:33N 40°29' W 073°60'0 0.0
2015-Jan-21 19:29N 40°29' W 073°60'0 0.0
2015-Jan-21 18:30N 40°29' W 073°60'0 0.0
2015-Jan-21 17:28N 40°29' W 073°60'0 0.0
2015-Jan-21 16:26N 40°29' W 073°60'0 0.0
2015-Jan-21 15:29N 40°29' W 073°60'0 0.1
2015-Jan-21 14:31N 40°29' W 073°60'0 0.1
2015-Jan-21 13:28N 40°29' W 073°60'0 0.1
2015-Jan-21 12:30N 40°29' W 073°60'0 0.0
2015-Jan-21 11:33N 40°29' W 073°60'0 0.0
2015-Jan-21 10:21N 40°29' W 073°60'0 0.0
2015-Jan-21 08:09N 40°29' W 073°60'0 0.0
2015-Jan-21 07:29N 40°29' W 073°60'0 0.0
2015-Jan-21 06:15N 40°29' W 073°60'0 0.0
2015-Jan-21 05:23N 40°29' W 073°60'  
Track history (hours):
 
Tides and Currents Weather Stations Pressure Air Temp Water Temp Dewpoint Dewpoint Depression Visibility Wind Speed Wind Dir Waves Ship Positions

Megan T Miller

Owner: MILLER MARINE SERVICES INC, PORT JEFFERSON, NY. More information available from US FCC via Universal Licensing System and Coast Guard Vessel Documentation Center.

Last reported at 2015-Jan-31 04:33 UTC. Time now 2015-Feb-01 21:20 UTC.
Position N 40°25' W 074°02'.

Length 18 m.

MMSI: 338104509.

Date/timePositionNaut miles runAvg speedWind from/ knotsBaromVisibWave heightAir tempDewpointWater temp
2015-Jan-31 04:33N 40°25' W 074°02'0 0.0
2015-Jan-30 03:24N 40°25' W 074°02'0 0.0
2015-Jan-30 00:06N 40°25' W 074°02'0 0.0
2015-Jan-29 01:21N 40°25' W 074°02'0 0.0
2015-Jan-29 00:23N 40°25' W 074°02'0 0.0
2015-Jan-28 22:05N 40°25' W 074°02'0 0.0
2015-Jan-27 01:21N 40°25' W 074°02'0 0.0
2015-Jan-26 22:13N 40°25' W 074°02'0 0.0
2015-Jan-26 15:10N 40°25' W 074°02'0 0.0
2015-Jan-26 14:28N 40°25' W 074°02'0 0.0
2015-Jan-26 13:03N 40°25' W 074°02'0 0.0
2015-Jan-26 09:19N 40°25' W 074°02'0 0.0
2015-Jan-26 03:25N 40°25' W 074°02'0 0.0
2015-Jan-26 00:06N 40°25' W 074°02'0 0.0
2015-Jan-25 13:12N 40°25' W 074°02'0 0.0
2015-Jan-25 12:30N 40°25' W 074°02'0 0.0
2015-Jan-25 03:30N 40°25' W 074°02'0 0.0
2015-Jan-25 02:30N 40°25' W 074°02'0 0.0
2015-Jan-24 16:08N 40°25' W 074°02'0 0.0
2015-Jan-24 05:32N 40°25' W 074°02'0 0.0
2015-Jan-24 04:26N 40°25' W 074°02'0 0.0
2015-Jan-24 03:33N 40°25' W 074°02'0 0.0
2015-Jan-24 02:14N 40°25' W 074°02'5 0.4
2015-Jan-23 15:28N 40°29' W 073°60'0 0.0
2015-Jan-23 14:30N 40°29' W 073°60'0 0.0
2015-Jan-23 13:26N 40°29' W 073°60'0 0.0
2015-Jan-23 10:33N 40°29' W 073°60'0 0.0
2015-Jan-23 06:06N 40°29' W 073°60'0 0.0
2015-Jan-23 04:23N 40°29' W 073°60'0 0.0
2015-Jan-23 03:28N 40°29' W 073°60'0 0.0
2015-Jan-23 02:20N 40°29' W 073°60'0 0.0
2015-Jan-23 01:33N 40°29' W 073°60'0 0.0
2015-Jan-23 00:29N 40°29' W 073°60'0 0.0
2015-Jan-22 23:21N 40°29' W 073°60'0 0.0
2015-Jan-22 22:23N 40°29' W 073°60'0 0.0
2015-Jan-22 20:21N 40°29' W 073°60'0 0.0
2015-Jan-22 19:05N 40°29' W 073°60'0 0.0
2015-Jan-22 18:23N 40°29' W 073°60'0 0.0
2015-Jan-22 16:31N 40°29' W 073°60'0 0.0
2015-Jan-22 12:03N 40°29' W 073°60'2 0.3
2015-Jan-22 04:26N 40°28' W 074°01'0 0.0
2015-Jan-22 03:13N 40°28' W 074°01'0 0.0
2015-Jan-22 02:06N 40°28' W 074°01'0 0.0
2015-Jan-22 01:20N 40°28' W 074°01'0 0.0
2015-Jan-22 00:29N 40°28' W 074°01'0 0.0
2015-Jan-21 23:12N 40°28' W 074°01'2 4.9
2015-Jan-21 22:50N 40°29' W 074°00'0 4.4
2015-Jan-21 22:46N 40°29' W 073°60'0 0.2
2015-Jan-21 22:33N 40°29' W 073°60'0 0.0
2015-Jan-21 21:32N 40°29' W 073°60'0 0.0
2015-Jan-21 20:33N 40°29' W 073°60'0 0.0
2015-Jan-21 19:29N 40°29' W 073°60'0 0.0
2015-Jan-21 18:30N 40°29' W 073°60'0 0.0
2015-Jan-21 17:28N 40°29' W 073°60'0 0.0
2015-Jan-21 16:26N 40°29' W 073°60'0 0.0
2015-Jan-21 15:29N 40°29' W 073°60'0 0.1
2015-Jan-21 14:31N 40°29' W 073°60'0 0.1
2015-Jan-21 13:28N 40°29' W 073°60'0 0.1
2015-Jan-21 12:30N 40°29' W 073°60'0 0.0
2015-Jan-21 11:33N 40°29' W 073°60'0 0.0
2015-Jan-21 10:21N 40°29' W 073°60'0 0.0
2015-Jan-21 08:09N 40°29' W 073°60'0 0.0
2015-Jan-21 07:29N 40°29' W 073°60'0 0.0
2015-Jan-21 06:15N 40°29' W 073°60'0 0.0
2015-Jan-21 05:23N 40°29' W 073°60'  

Dump ship's entire track history